Data for 11/15/2008

Time Sea-Level Adjusted Pressure Absolute Pressure Temperature Relative Humidity Dew Point   
(mb) (inHg) (mb) (inHg) (C) (F) (%) (C) (F)
00:05 1031 30.45 860 25.4 -2.2 28.1 57 -9.6 14.7
00:10 1031 30.45 860 25.4 -2.2 28.1 56 -9.8 14.3
00:15 1031 30.45 860 25.4 -2.1 28.2 54 -10.2 13.7
00:20 1030 30.42 860 25.4 -2.2 28.1 58 -9.3 15.2
00:25 1030 30.42 860 25.4 -2.3 27.8 58 -9.6 14.8
00:30 1030 30.42 860 25.4 -2.1 28.2 56 -9.8 14.4
00:35 1031 30.45 860 25.4 -2 28.4 56 -9.7 14.5
00:40 1031 30.45 860 25.4 -1.8 28.8 55 -9.8 14.4
00:45 1031 30.45 860 25.4 -1.9 28.6 54 -9.9 14.1
00:50 1031 30.45 860 25.4 -1.5 29.3 53 -10 14
00:55 1031 30.45 860 25.4 -1.7 29 53 -9.9 14.1
01:00 1030 30.42 860 25.4 -1.7 28.9 55 -9.5 14.8
01:05 1030 30.42 860 25.4 -1.6 29.1 55 -9.6 14.7
01:10 1030 30.42 860 25.4 -1.4 29.4 52 -10 14.1
01:15 1030 30.42 860 25.4 -1.4 29.4 52 -10.1 13.8
01:20 1030 30.42 860 25.4 -1.6 29.1 55 -9.6 14.8
01:25 1030 30.42 860 25.4 -2.1 28.3 57 -9.6 14.8
01:30 1030 30.42 860 25.4 -2.2 28 57 -9.6 14.8
01:35 1030 30.42 860 25.4 -1.8 28.7 54 -9.9 14.3
01:40 1030 30.42 859 25.37 -1.6 29.1 51 -10.4 13.3
01:45 1030 30.42 859 25.37 -1.4 29.5 51 -10.4 13.3
01:50 1030 30.42 859 25.37 -1.4 29.5 51 -10.2 13.6
01:55 1030 30.42 860 25.4 -1.4 29.4 52 -10.1 13.9
02:00 1030 30.42 860 25.4 -1.3 29.7 53 -9.6 14.8
02:05 1030 30.42 859 25.37 -0.9 30.3 51 -9.7 14.5
02:10 1030 30.42 859 25.37 -0.8 30.6 51 -9.8 14.4
02:15 1030 30.42 859 25.37 -0.8 30.5 51 -9.6 14.7
02:20 1030 30.42 859 25.37 -0.7 30.7 50 -9.9 14.1
02:25 1030 30.42 859 25.37 -0.6 30.9 51 -9.5 14.9
02:30 1030 30.42 859 25.37 -0.6 31 51 -9.5 14.9
02:35 1030 30.42 859 25.37 -0.4 31.2 52 -9.2 15.4
02:40 1030 30.42 859 25.37 -0.4 31.2 51 -9.3 15.2
02:45 1030 30.42 860 25.4 -0.3 31.6 42 -11.6 11.2
02:50 1030 30.42 860 25.4 0.1 32.2 42 -11.4 11.4
02:55 1030 30.42 859 25.37 0.6 33 39 -11.8 10.7
03:00 1030 30.42 859 25.37 1 33.9 46 -9.4 15.1
03:05 1030 30.42 859 25.37 0.6 33.1 54 -7.6 18.2
03:10 1030 30.42 859 25.37 0.2 32.4 50 -9 15.8
03:15 1030 30.42 859 25.37 0.4 32.8 48 -9.2 15.4
03:20 1030 30.42 859 25.37 0.3 32.6 48 -9.3 15.2
03:25 1030 30.42 859 25.37 0.2 32.4 49 -9.4 15.1
03:30 1030 30.42 859 25.37 0.3 32.6 48 -9.5 14.9
03:35 1030 30.42 859 25.37 0.2 32.4 50 -8.9 15.9
03:40 1030 30.42 859 25.37 0.2 32.4 47 -9.8 14.4
03:45 1030 30.42 859 25.37 0.5 32.8 47 -9.6 14.7
03:50 1030 30.42 859 25.37 0.8 33.4 41 -11 12.3
03:55 1030 30.42 859 25.37 0.9 33.7 42 -10.5 13.2
04:00 1030 30.42 859 25.37 1.2 34.1 40 -10.9 12.3
04:05 1030 30.42 859 25.37 1.3 34.4 43 -9.8 14.3
04:10 1030 30.42 859 25.37 1.2 34.2 45 -9.4 15.2
04:15 1030 30.42 859 25.37 1.1 33.9 45 -9.5 15
04:20 1030 30.42 859 25.37 0.9 33.6 50 -8.3 17
04:25 1030 30.42 859 25.37 0.8 33.4 44 -10.2 13.7
04:30 1030 30.42 859 25.37 1 33.8 47 -9 15.9
04:35 1030 30.42 859 25.37 1 33.8 50 -8.4 16.9
04:40 1030 30.42 859 25.37 0.8 33.5 50 -8.5 16.7
04:45 1030 30.42 859 25.37 0.7 33.3 48 -9 15.8
04:50 1030 30.42 859 25.37 0.6 33.1 44 -10.2 13.6
04:55 1030 30.42 859 25.37 0.7 33.3 39 -11.7 11
05:00 1030 30.42 859 25.37 1.2 34.1 39 -11.4 11.5
05:05 1030 30.42 859 25.37 1.6 34.8 40 -10.6 12.9
05:10 1030 30.42 859 25.37 1.6 34.9 42 -9.9 14.1
05:15 1030 30.42 859 25.37 1.6 35 42 -10 13.9
05:20 1030 30.42 859 25.37 1.5 34.6 42 -10.2 13.6
05:25 1030 30.42 859 25.37 1.5 34.7 44 -9.4 15.1
05:30 1030 30.42 859 25.37 1.5 34.6 52 -7.3 18.9
05:35 1030 30.42 859 25.37 1.2 34.2 50 -8.2 17.3
05:40 1030 30.42 859 25.37 1.2 34.1 46 -9.2 15.4
05:45 1030 30.42 859 25.37 1.3 34.3 42 -10.4 13.2
05:50 1029 30.39 859 25.37 1.4 34.6 45 -9.3 15.2
05:55 1029 30.39 859 25.37 1.6 34.8 42 -10 14.1
06:00 1029 30.39 859 25.37 1.9 35.5 43 -9.4 15
06:05 1029 30.39 859 25.37 2.1 35.8 44 -9 15.8
06:10 1029 30.39 859 25.37 2 35.7 45 -8.8 16.2
06:15 1029 30.39 859 25.37 2.1 35.7 42 -9.6 14.7
06:20 1029 30.39 859 25.37 2.2 36 42 -9.5 14.8
06:25 1029 30.39 859 25.37 2.4 36.3 38 -10.4 13.2
06:30 1029 30.39 859 25.37 2.4 36.3 39 -10.1 13.9
06:35 1029 30.39 859 25.37 2.6 36.7 40 -9.8 14.3
06:40 1029 30.39 859 25.37 2.9 37.2 40 -9.4 15
06:45 1030 30.42 859 25.37 3 37.4 41 -9 15.7
06:50 1030 30.42 859 25.37 3.2 37.8 41 -8.8 16.2
06:55 1029 30.39 859 25.37 3.3 38 42 -8.4 16.8
07:00 1029 30.39 859 25.37 3.3 38 43 -8.1 17.3
07:05 1029 30.39 859 25.37 3.2 37.7 44 -7.8 17.9
07:10 1029 30.39 858 25.34 3.1 37.5 46 -7.6 18.4
07:15 1029 30.39 858 25.34 3 37.4 45 -7.7 18.1
07:20 1029 30.39 858 25.34 3.1 37.6 46 -7.4 18.7
07:25 1029 30.39 858 25.34 3.1 37.6 47 -7.3 18.9
07:30 1029 30.39 858 25.34 3.1 37.5 47 -7.1 19.2
07:35 1029 30.39 858 25.34 3.1 37.5 46 -7.4 18.6
07:40 1029 30.39 859 25.37 3 37.4 46 -7.5 18.5
07:45 1029 30.39 858 25.34 3.1 37.6 45 -7.6 18.3
07:50 1029 30.39 858 25.34 3.2 37.8 45 -7.6 18.3
07:55 1029 30.39 858 25.34 3.3 37.9 45 -7.4 18.6
08:00 1029 30.39 858 25.34 3.2 37.7 45 -7.5 18.5
08:05 1029 30.39 858 25.34 3.2 37.7 46 -7.3 18.8
08:10 1029 30.39 858 25.34 3.3 38 46 -7.1 19.2
08:15 1029 30.39 858 25.34 3.3 37.9 46 -7.2 19.1
08:20 1029 30.39 858 25.34 3.4 38.1 47 -7 19.5
08:25 1029 30.39 858 25.34 3.4 38.2 47 -6.9 19.6
08:30 1029 30.39 858 25.34 3.6 38.4 48 -6.5 20.3
08:35 1029 30.39 858 25.34 3.8 38.8 48 -6.3 20.7
08:40 1029 30.39 858 25.34 3.8 38.8 47 -6.4 20.5
08:45 1029 30.39 858 25.34 3.7 38.7 47 -6.4 20.4
08:50 1029 30.39 858 25.34 3.9 39 47 -6.4 20.4
08:55 1029 30.39 858 25.34 4 39.2 47 -6.2 20.8
09:00 1029 30.39 859 25.37 4 39.2 48 -6.1 21.1
09:05 1029 30.39 859 25.37 3.8 38.8 51 -5.5 22.1
09:10 1029 30.39 859 25.37 3.6 38.4 53 -5.2 22.6
09:15 1029 30.39 859 25.37 3.7 38.6 51 -5.5 22.2
09:20 1029 30.39 858 25.34 4 39.3 50 -5.4 22.2
09:25 1029 30.39 859 25.37 4.4 39.9 49 -5.5 22.1
09:30 1029 30.39 858 25.34 4.6 40.2 49 -5.3 22.5
09:35 1029 30.39 858 25.34 4.5 40.2 50 -4.9 23.2
09:40 1029 30.39 858 25.34 4.5 40.1 49 -5.3 22.4
09:45 1029 30.39 858 25.34 4.7 40.5 48 -5.3 22.4
09:50 1029 30.39 858 25.34 5 41 47 -5.3 22.4
09:55 1029 30.39 858 25.34 5.2 41.3 47 -5.3 22.4
10:00 1029 30.39 858 25.34 5.4 41.8 47 -5.1 22.8
10:05 1029 30.39 858 25.34 5.8 42.4 46 -5.1 22.9
10:10 1029 30.39 858 25.34 6.1 43 45 -4.9 23.2
10:15 1029 30.39 858 25.34 6.3 43.3 45 -4.9 23.2
10:20 1029 30.39 858 25.34 6.5 43.6 44 -5 23
10:25 1029 30.39 858 25.34 6.1 43 46 -4.5 23.9
10:30 1029 30.39 858 25.34 6.3 43.3 47 -4.3 24.3
10:35 1028 30.36 858 25.34 6.3 43.3 46 -4.5 23.8
10:40 1028 30.36 858 25.34 6 42.9 47 -4.4 24
10:45 1029 30.39 858 25.34 6.2 43.1 46 -4.5 23.9
10:50 1029 30.39 858 25.34 6.2 43.2 47 -4.3 24.2
10:55 1028 30.36 858 25.34 6.3 43.4 47 -4.2 24.4
11:00 1028 30.36 857 25.31 6.5 43.8 47 -4 24.7
11:05 1028 30.36 857 25.31 6.7 44.1 45 -4.3 24.3
11:10 1028 30.36 857 25.31 7 44.6 45 -4.1 24.7
11:15 1028 30.36 857 25.31 7.1 44.7 44 -4.2 24.5
11:20 1028 30.36 857 25.31 7.3 45.1 45 -4 24.9
11:25 1028 30.36 857 25.31 7.4 45.3 45 -3.9 25
11:30 1028 30.36 857 25.31 7.9 46.1 43 -3.9 25
11:35 1027 30.33 857 25.31 8.1 46.5 42 -4 24.9
11:40 1027 30.33 857 25.31 7.9 46.3 44 -3.7 25.3
11:45 1028 30.36 857 25.31 7.9 46.2 44 -3.6 25.6
11:50 1028 30.36 857 25.31 8 46.4 44 -3.5 25.8
11:55 1028 30.36 857 25.31 8.1 46.5 45 -3.2 26.2
12:00 1027 30.33 857 25.31 8.1 46.6 45 -3.1 26.4
12:05 1027 30.33 856 25.28 8.2 46.7 45 -3.1 26.5
12:10 1027 30.33 856 25.28 8.3 47 45 -3 26.6
12:15 1027 30.33 856 25.28 8.4 47.2 45 -2.9 26.7
12:20 1027 30.33 856 25.28 8.6 47.5 45 -2.6 27.4
12:25 1027 30.33 856 25.28 8.6 47.4 46 -2.5 27.6
12:30 1027 30.33 856 25.28 8.7 47.7 44 -2.9 26.8
12:35 1027 30.33 856 25.28 9.2 48.6 43 -2.7 27.1
12:40 1027 30.33 856 25.28 9.3 48.8 43 -2.6 27.2
12:45 1027 30.33 856 25.28 9.8 49.7 42 -2.3 27.8
12:50 1027 30.33 856 25.28 10.4 50.7 40 -2.5 27.5
12:55 1027 30.33 856 25.28 10 50 43 -1.9 28.5
13:00 1027 30.33 856 25.28 9.5 49 43 -2.3 27.8
13:05 1026 30.3 856 25.28 9.4 48.8 44 -2.3 27.8
13:10 1027 30.33 856 25.28 9.5 49.1 42 -2.7 27.1
13:15 1026 30.3 856 25.28 10 50 40 -2.8 26.9
13:20 1026 30.3 856 25.28 10.9 51.7 39 -2.6 27.4
13:25 1026 30.3 856 25.28 11.2 52.1 39 -2.3 27.9
13:30 1026 30.3 856 25.28 11 51.7 39 -2.4 27.7
13:35 1026 30.3 855 25.25 11.1 52 40 -2.1 28.2
13:40 1026 30.3 855 25.25 10.8 51.4 40 -2.2 28.1
13:45 1026 30.3 855 25.25 10.8 51.5 41 -2 28.4
13:50 1026 30.3 855 25.25 11.3 52.4 39 -2 28.4
13:55 1026 30.3 855 25.25 12 53.6 39 -1.6 29.1
14:00 1026 30.3 855 25.25 11.8 53.3 40 -1.4 29.5
14:05 1026 30.3 855 25.25 11.6 52.9 41 -1.1 30
14:10 1026 30.3 855 25.25 11.4 52.6 41 -1.2 29.8
14:15 1026 30.3 855 25.25 11.7 53 41 -1.2 29.8
14:20 1026 30.3 855 25.25 11.9 53.4 40 -1.3 29.6
14:25 1026 30.3 855 25.25 11.9 53.5 40 -1.1 30
14:30 1025 30.27 855 25.25 11.8 53.2 41 -1 30.2
14:35 1025 30.27 855 25.25 11.6 52.9 42 -0.9 30.4
14:40 1025 30.27 855 25.25 11.5 52.8 42 -1 30.2
14:45 1025 30.27 855 25.25 11.4 52.5 42 -0.9 30.4
14:50 1025 30.27 855 25.25 11.3 52.3 43 -1 30.3
14:55 1025 30.27 855 25.25 11.1 52 43 -0.8 30.5
15:00 1025 30.27 855 25.25 11 51.9 44 -0.7 30.7
15:05 1025 30.27 855 25.25 11 51.8 45 -0.5 31.2
15:10 1025 30.27 854 25.22 10.8 51.5 45 -0.6 31
15:15 1025 30.27 854 25.22 10.8 51.4 45 -0.6 30.9
15:20 1025 30.27 854 25.22 10.8 51.5 45 -0.6 30.9
15:25 1025 30.27 854 25.22 11 51.7 45 -0.6 30.9
15:30 1025 30.27 854 25.22 11 51.8 45 -0.4 31.3
15:35 1025 30.27 854 25.22 10.9 51.6 45 -0.4 31.3
15:40 1025 30.27 854 25.22 10.7 51.3 46 -0.4 31.3
15:45 1025 30.27 854 25.22 10.7 51.2 47 -0.3 31.5
15:50 1025 30.27 854 25.22 10.5 51 47 -0.3 31.4
15:55 1025 30.27 854 25.22 10.6 51 46 -0.5 31.2
16:00 1025 30.27 854 25.22 10.5 50.9 47 -0.3 31.4
16:05 1025 30.27 854 25.22 10.6 51 47 -0.3 31.4
16:10 1025 30.27 854 25.22 10.5 51 47 -0.3 31.4
16:15 1025 30.27 854 25.22 10.6 51.1 46 -0.4 31.3
16:20 1025 30.27 854 25.22 10.6 51.2 47 -0.3 31.5
16:25 1025 30.27 854 25.22 10.6 51 46 -0.4 31.3
16:30 1025 30.27 854 25.22 10.6 51.1 46 -0.4 31.3
16:35 1025 30.27 854 25.22 10.6 51 47 -0.3 31.5
16:40 1025 30.27 854 25.22 10.7 51.2 46 -0.4 31.2
16:45 1025 30.27 854 25.22 10.9 51.5 45 -0.5 31.1
16:50 1025 30.27 854 25.22 10.9 51.6 45 -0.4 31.3
16:55 1025 30.27 854 25.22 11 51.7 45 -0.4 31.3
17:00 1025 30.27 854 25.22 10.9 51.7 45 -0.4 31.2
17:05 1025 30.27 854 25.22 10.7 51.3 46 -0.5 31.2
17:10 1025 30.27 854 25.22 10.6 51.1 46 -0.4 31.2
17:15 1025 30.27 854 25.22 10.6 51.1 46 -0.5 31.1
17:20 1025 30.27 854 25.22 10.6 51 46 -0.6 31
17:25 1025 30.27 854 25.22 10.6 51.1 46 -0.6 30.9
17:30 1025 30.27 854 25.22 10.6 51.1 47 -0.3 31.5
17:35 1025 30.27 854 25.22 10.4 50.6 47 -0.3 31.5
17:40 1025 30.27 854 25.22 10.1 50.1 49 -0.2 31.6
17:45 1025 30.27 854 25.22 9.8 49.7 50 -0.1 31.7
17:50 1025 30.27 854 25.22 9.6 49.2 50 -0.3 31.4
17:55 1025 30.27 854 25.22 9.6 49.2 50 -0.4 31.2
18:00 1025 30.27 854 25.22 9.5 49.2 50 -0.4 31.2
18:05 1025 30.27 854 25.22 9.5 49.2 50 -0.3 31.4
18:10 1025 30.27 854 25.22 9.3 48.8 51 -0.2 31.6
18:15 1025 30.27 854 25.22 9.2 48.6 51 -0.4 31.3
18:20 1025 30.27 854 25.22 9.1 48.4 52 -0.2 31.6
18:25 1025 30.27 854 25.22 8.9 48 52 -0.3 31.5
18:30 1025 30.27 854 25.22 8.9 48.1 51 -0.5 31.1
18:35 1025 30.27 854 25.22 9.3 48.7 48 -1 30.2
18:40 1025 30.27 854 25.22 10 49.9 46 -1 30.2
18:45 1025 30.27 854 25.22 10.3 50.5 45 -1 30.2
18:50 1025 30.27 854 25.22 10.4 50.8 45 -0.9 30.5
18:55 1025 30.27 854 25.22 10.2 50.3 48 -0.2 31.6
19:00 1025 30.27 854 25.22 9.6 49.3 49 -0.6 30.9
19:05 1025 30.27 854 25.22 9.5 49.2 50 -0.3 31.4
19:10 1025 30.27 854 25.22 9.2 48.5 52 -0.1 31.8
19:15 1025 30.27 854 25.22 8.8 47.8 53 -0.2 31.6
19:20 1025 30.27 854 25.22 8.4 47.2 53 -0.6 30.9
19:25 1025 30.27 855 25.25 8.7 47.6 52 -0.7 30.8
19:30 1025 30.27 854 25.22 8.9 48 51 -0.7 30.8
19:35 1025 30.27 854 25.22 9 48.2 51 -0.7 30.7
19:40 1025 30.27 854 25.22 9 48.2 50 -0.7 30.7
19:45 1025 30.27 854 25.22 9 48.3 50 -0.7 30.7
19:50 1025 30.27 854 25.22 9 48.2 51 -0.7 30.8
19:55 1025 30.27 854 25.22 9 48.3 48 -1.2 29.8
20:00 1025 30.27 854 25.22 9.4 49 48 -1.1 30
20:05 1025 30.27 854 25.22 9.5 49.1 48 -0.8 30.6
20:10 1025 30.27 854 25.22 9.2 48.6 50 -0.7 30.8
20:15 1025 30.27 854 25.22 9 48.2 50 -0.7 30.7
20:20 1025 30.27 854 25.22 8.9 48.1 50 -0.8 30.6
20:25 1024 30.24 854 25.22 9.2 48.5 49 -1 30.1
20:30 1025 30.27 854 25.22 9.6 49.2 48 -0.8 30.6
20:35 1025 30.27 854 25.22 9.5 49 49 -0.6 31
20:40 1025 30.27 854 25.22 9.1 48.5 51 -0.5 31
20:45 1025 30.27 854 25.22 9.1 48.3 50 -0.9 30.4
20:50 1025 30.27 854 25.22 9.2 48.5 50 -0.7 30.8
20:55 1025 30.27 854 25.22 9 48.3 50 -0.8 30.5
21:00 1025 30.27 854 25.22 9 48.2 50 -0.8 30.6
21:05 1025 30.27 854 25.22 8.9 48 51 -0.6 30.9
21:10 1025 30.27 854 25.22 8.7 47.7 52 -0.5 31
21:15 1025 30.27 854 25.22 8.5 47.3 53 -0.5 31.1
21:20 1025 30.27 854 25.22 8.3 47 54 -0.5 31.2
21:25 1025 30.27 854 25.22 8.3 46.9 54 -0.6 31
21:30 1025 30.27 854 25.22 8.3 47 53 -0.7 30.7
21:35 1025 30.27 854 25.22 8.5 47.3 52 -0.7 30.8
21:40 1025 30.27 854 25.22 8.6 47.5 52 -0.7 30.7
21:45 1025 30.27 854 25.22 8.7 47.6 52 -0.6 30.9
21:50 1025 30.27 854 25.22 8.6 47.4 53 -0.6 31
21:55 1025 30.27 854 25.22 8.4 47.2 53 -0.5 31
22:00 1025 30.27 854 25.22 8.3 47 53 -0.6 31
22:05 1025 30.27 854 25.22 8.3 46.9 53 -0.7 30.8
22:10 1025 30.27 854 25.22 8.3 46.9 53 -0.6 30.9
22:15 1025 30.27 854 25.22 8.3 47 53 -0.6 30.9
22:20 1024 30.24 854 25.22 8.3 46.9 53 -0.7 30.7
22:25 1024 30.24 854 25.22 8.3 46.9 53 -0.7 30.7
22:30 1024 30.24 854 25.22 8.3 46.9 53 -0.7 30.7
22:35 1024 30.24 854 25.22 8.4 47 53 -0.8 30.6
22:40 1024 30.24 853 25.19 8.5 47.2 52 -0.9 30.4
22:45 1024 30.24 853 25.19 8.5 47.3 52 -0.9 30.4
22:50 1024 30.24 853 25.19 8.6 47.4 51 -0.9 30.3
22:55 1024 30.24 853 25.19 8.6 47.4 51 -1 30.3
23:00 1024 30.24 853 25.19 8.6 47.5 51 -1 30.2
23:05 1024 30.24 853 25.19 8.7 47.6 50 -1.1 30.1
23:10 1024 30.24 853 25.19 8.7 47.6 50 -1 30.1
23:15 1024 30.24 853 25.19 8.8 47.8 50 -1 30.1
23:20 1024 30.24 853 25.19 8.7 47.7 51 -0.9 30.3
23:25 1024 30.24 853 25.19 8.6 47.6 51 -1 30.2
23:30 1024 30.24 853 25.19 8.6 47.6 51 -0.9 30.3
23:35 1024 30.24 853 25.19 8.5 47.3 51 -0.9 30.4
23:40 1024 30.24 853 25.19 8.4 47.1 52 -0.9 30.4
23:45 1024 30.24 853 25.19 8.4 47 52 -0.8 30.5
23:50 1024 30.24 853 25.19 8.3 46.9 52 -0.8 30.5
23:55 1024 30.24 853 25.19 8.2 46.7 53 -0.9 30.4
24:00 1024 30.24 853 25.19 8.1 46.5 53 -0.9 30.4